createdAt,value
2019-01-29T00:00:59.114Z,10.43
2019-01-29T00:03:03.028Z,8.60
2019-01-29T00:05:07.077Z,9.03
2019-01-29T00:07:11.033Z,8.83
2019-01-29T00:09:14.909Z,12.33
2019-01-29T00:11:18.807Z,7.53
2019-01-29T00:13:22.690Z,8.53
2019-01-29T00:15:26.629Z,10.73
2019-01-29T00:17:30.634Z,5.37
2019-01-29T00:19:34.506Z,8.83
2019-01-29T00:21:38.406Z,6.37
2019-01-29T00:23:42.266Z,6.67
2019-01-29T00:25:46.124Z,6.97
2019-01-29T00:27:50.037Z,5.43
2019-01-29T00:29:53.931Z,7.67
2019-01-29T00:31:57.810Z,3.73
2019-01-29T00:34:01.690Z,10.80
2019-01-29T00:36:05.585Z,8.77
2019-01-29T00:38:09.439Z,9.17
2019-01-29T00:40:15.485Z,6.83
2019-01-29T00:42:19.358Z,7.93
2019-01-29T00:44:23.233Z,5.03
2019-01-29T00:46:27.109Z,8.43
2019-01-29T00:48:30.975Z,3.97
2019-01-29T00:50:34.861Z,11.20
2019-01-29T00:52:42.135Z,10.93
2019-01-29T00:54:44.250Z,8.17
2019-01-29T00:56:48.173Z,6.53
2019-01-29T00:58:52.078Z,7.77
2019-01-29T01:00:55.911Z,4.93
2019-01-29T01:02:59.794Z,4.00
2019-01-29T01:05:04.665Z,4.73
2019-01-29T01:07:08.505Z,8.67
2019-01-29T01:09:12.513Z,6.87
2019-01-29T01:11:16.363Z,6.27
2019-01-29T01:13:20.271Z,5.43
2019-01-29T01:15:24.165Z,7.03
2019-01-29T01:17:28.172Z,9.33
2019-01-29T01:19:32.078Z,7.57
2019-01-29T01:21:35.955Z,6.20
2019-01-29T01:23:39.833Z,8.33
2019-01-29T01:25:43.694Z,5.77
2019-01-29T01:27:47.580Z,6.40
2019-01-29T01:29:51.450Z,3.80
2019-01-29T01:31:55.349Z,4.47
2019-01-29T01:33:59.355Z,7.20
2019-01-29T01:36:03.217Z,10.50
2019-01-29T01:38:07.085Z,7.47
2019-01-29T01:40:13.930Z,8.87
2019-01-29T01:42:17.779Z,4.07
2019-01-29T01:44:21.697Z,7.93
2019-01-29T01:46:25.558Z,6.27
2019-01-29T01:48:29.432Z,4.33
2019-01-29T01:50:33.422Z,9.63
2019-01-29T01:52:37.303Z,10.83
2019-01-29T01:54:41.139Z,6.97
2019-01-29T01:56:45.033Z,8.17
2019-01-29T01:58:48.897Z,6.23
2019-01-29T02:00:52.781Z,11.60
2019-01-29T02:02:56.630Z,7.10
2019-01-29T02:05:00.560Z,6.83
2019-01-29T02:07:04.518Z,14.33
2019-01-29T02:09:09.373Z,6.23
2019-01-29T02:11:13.274Z,10.07
2019-01-29T02:13:17.191Z,5.23
2019-01-29T02:15:21.000Z,5.50
2019-01-29T02:17:24.943Z,3.40
2019-01-29T02:19:28.810Z,10.53
2019-01-29T02:21:32.726Z,8.43
2019-01-29T02:23:36.689Z,7.53
2019-01-29T02:25:40.602Z,10.33
2019-01-29T02:27:44.604Z,8.77
2019-01-29T02:29:48.464Z,7.37
2019-01-29T02:31:52.318Z,9.07
2019-01-29T02:33:56.222Z,7.73
2019-01-29T02:36:00.162Z,7.73
2019-01-29T02:38:04.108Z,4.83
2019-01-29T02:40:25.517Z,12.30
2019-01-29T02:42:29.391Z,10.93
2019-01-29T02:44:33.253Z,9.73
2019-01-29T02:46:41.911Z,8.80
2019-01-29T02:48:45.856Z,6.93
2019-01-29T02:50:49.692Z,8.10
2019-01-29T02:52:54.506Z,8.63
2019-01-29T02:54:58.494Z,11.77
2019-01-29T02:57:02.421Z,11.30
2019-01-29T02:59:06.275Z,7.27
2019-01-29T03:01:10.204Z,10.23
2019-01-29T03:03:14.059Z,9.83
2019-01-29T03:05:18.554Z,7.87
2019-01-29T03:07:22.432Z,8.57
2019-01-29T03:09:26.382Z,6.03
2019-01-29T03:11:30.286Z,12.50
2019-01-29T03:13:34.120Z,6.03
2019-01-29T03:15:38.010Z,10.50
2019-01-29T03:17:41.862Z,12.20
2019-01-29T03:19:45.753Z,8.67
2019-01-29T03:21:49.634Z,9.23
2019-01-29T03:23:53.490Z,4.60
2019-01-29T03:25:57.405Z,11.83
2019-01-29T03:28:01.277Z,9.37
2019-01-29T03:30:08.992Z,5.43
2019-01-29T03:32:12.875Z,10.47
2019-01-29T03:34:16.742Z,7.77
2019-01-29T03:36:20.857Z,5.80
2019-01-29T03:38:24.959Z,4.43
2019-01-29T03:40:29.017Z,8.53
2019-01-29T03:42:32.995Z,7.17
2019-01-29T03:44:37.053Z,7.57
2019-01-29T03:46:41.087Z,7.93
2019-01-29T03:48:45.469Z,5.73
2019-01-29T03:50:49.313Z,8.97
2019-01-29T03:52:53.366Z,8.50
2019-01-29T03:54:57.270Z,8.57
2019-01-29T03:57:01.514Z,5.90
2019-01-29T03:59:05.624Z,6.73
2019-01-29T04:01:09.690Z,7.03
2019-01-29T04:03:13.944Z,7.37
2019-01-29T04:05:18.026Z,6.57
2019-01-29T04:07:21.918Z,6.43
2019-01-29T04:09:25.775Z,7.03
2019-01-29T04:11:29.651Z,3.30
2019-01-29T04:13:33.507Z,2.40
2019-01-29T04:15:37.466Z,5.03
2019-01-29T04:17:41.618Z,5.33
2019-01-29T04:19:45.804Z,8.60
2019-01-29T04:21:49.691Z,7.07
2019-01-29T04:23:53.611Z,5.87
2019-01-29T04:25:57.520Z,7.90
2019-01-29T04:28:01.354Z,9.87
2019-01-29T04:30:08.214Z,6.23
2019-01-29T04:32:12.153Z,8.70
2019-01-29T04:34:16.007Z,8.00
2019-01-29T04:36:19.872Z,8.70
2019-01-29T04:38:23.906Z,5.93
2019-01-29T04:40:27.786Z,10.30
2019-01-29T04:42:31.646Z,7.37
2019-01-29T04:44:35.515Z,9.93
2019-01-29T04:46:39.374Z,11.67
2019-01-29T04:48:43.305Z,10.43
2019-01-29T04:50:47.186Z,11.17
2019-01-29T04:52:51.048Z,6.60
2019-01-29T04:54:55.100Z,5.80
2019-01-29T04:56:58.934Z,9.07
2019-01-29T04:59:02.807Z,6.67
2019-01-29T05:01:06.713Z,12.93
2019-01-29T05:03:10.597Z,6.03
2019-01-29T05:05:14.856Z,10.33
2019-01-29T05:07:18.765Z,5.83
2019-01-29T05:09:22.668Z,12.60
2019-01-29T05:11:26.498Z,7.93
2019-01-29T05:13:30.415Z,15.87
2019-01-29T05:15:34.312Z,13.47
2019-01-29T05:17:38.202Z,9.37
2019-01-29T05:19:42.099Z,5.83
2019-01-29T05:21:46.049Z,9.33
2019-01-29T05:23:49.922Z,9.87
2019-01-29T05:25:53.783Z,10.83
2019-01-29T05:27:57.665Z,10.83
2019-01-29T05:30:01.582Z,12.00
2019-01-29T05:32:05.748Z,11.63
2019-01-29T05:34:09.701Z,7.50
2019-01-29T05:36:13.540Z,11.70
2019-01-29T05:38:17.426Z,9.23
2019-01-29T05:40:22.777Z,6.43
2019-01-29T05:42:26.673Z,11.13
2019-01-29T05:44:30.584Z,9.30
2019-01-29T05:46:34.421Z,10.87
2019-01-29T05:48:38.339Z,9.80
2019-01-29T05:50:42.257Z,13.57
2019-01-29T05:52:46.143Z,5.37
2019-01-29T05:54:50.047Z,7.77
2019-01-29T05:56:53.897Z,7.83
2019-01-29T05:58:57.909Z,6.73
2019-01-29T06:01:01.805Z,14.67
2019-01-29T06:03:05.833Z,11.57
2019-01-29T06:05:11.436Z,10.23
2019-01-29T06:07:15.356Z,10.13
2019-01-29T06:09:19.205Z,8.37
2019-01-29T06:11:23.522Z,11.33
2019-01-29T06:13:27.516Z,7.20
2019-01-29T06:15:31.566Z,15.43
2019-01-29T06:17:35.515Z,6.50
2019-01-29T06:19:39.440Z,8.43
2019-01-29T06:21:43.642Z,4.93
2019-01-29T06:23:47.509Z,10.60
2019-01-29T06:25:51.368Z,6.23
2019-01-29T06:27:55.280Z,5.97
2019-01-29T06:29:59.146Z,6.70
2019-01-29T06:32:03.046Z,10.23
2019-01-29T06:34:07.025Z,11.10
2019-01-29T06:36:10.891Z,7.00
2019-01-29T06:38:14.850Z,8.47
2019-01-29T06:40:20.863Z,14.57
2019-01-29T06:42:24.795Z,8.20
2019-01-29T06:44:28.692Z,16.23
2019-01-29T06:46:32.728Z,9.73
2019-01-29T06:48:36.675Z,12.57
2019-01-29T06:50:40.617Z,11.27
2019-01-29T06:52:44.470Z,8.00
2019-01-29T06:54:48.682Z,9.63
2019-01-29T06:56:52.693Z,8.40
2019-01-29T06:58:56.533Z,6.60
2019-01-29T07:01:00.467Z,4.63
2019-01-29T07:03:04.563Z,11.50
2019-01-29T07:05:09.029Z,6.83
2019-01-29T07:07:12.872Z,9.87
2019-01-29T07:09:17.130Z,14.20
2019-01-29T07:11:21.017Z,7.70
2019-01-29T07:13:24.939Z,8.67
2019-01-29T07:15:47.859Z,12.47
2019-01-29T07:17:51.763Z,8.43
2019-01-29T07:19:55.662Z,8.87
2019-01-29T07:21:59.525Z,15.53
2019-01-29T07:24:03.461Z,8.17
2019-01-29T07:26:07.354Z,14.27
2019-01-29T07:28:13.299Z,14.53
2019-01-29T07:30:16.791Z,11.40
2019-01-29T07:32:20.624Z,7.53
2019-01-29T07:34:24.691Z,11.90
2019-01-29T07:36:28.524Z,9.53
2019-01-29T07:38:32.390Z,9.33
2019-01-29T07:40:36.327Z,7.27
2019-01-29T07:42:40.171Z,11.00
2019-01-29T07:44:44.072Z,9.37
2019-01-29T07:46:47.968Z,14.57
2019-01-29T07:48:51.887Z,6.73
2019-01-29T07:50:55.809Z,10.63
2019-01-29T07:52:59.678Z,10.40
2019-01-29T07:55:03.820Z,8.47
2019-01-29T07:57:07.754Z,9.00
2019-01-29T07:59:11.616Z,10.73
2019-01-29T08:01:15.466Z,7.97
2019-01-29T08:03:19.349Z,15.53
2019-01-29T08:05:23.266Z,11.07
2019-01-29T08:07:27.171Z,11.97
2019-01-29T08:09:30.998Z,12.37
2019-01-29T08:11:34.940Z,16.27
2019-01-29T08:13:38.827Z,14.93
2019-01-29T08:15:42.687Z,7.23
2019-01-29T08:17:46.671Z,8.23
2019-01-29T08:19:50.564Z,6.97
2019-01-29T08:21:54.394Z,7.00
2019-01-29T08:23:58.286Z,13.33
2019-01-29T08:26:02.137Z,7.40
2019-01-29T08:28:06.053Z,8.17
2019-01-29T08:30:14.768Z,12.27
2019-01-29T08:32:18.617Z,7.20
2019-01-29T08:34:22.534Z,8.33
2019-01-29T08:36:26.397Z,10.33
2019-01-29T08:38:30.238Z,13.83
2019-01-29T08:40:34.193Z,11.73
2019-01-29T08:42:38.074Z,9.10
2019-01-29T08:44:41.961Z,16.50
2019-01-29T08:46:45.850Z,7.67
2019-01-29T08:48:49.705Z,11.17
2019-01-29T08:50:53.619Z,7.87
2019-01-29T08:52:57.466Z,8.73
2019-01-29T08:55:10.319Z,9.37
2019-01-29T08:57:08.917Z,8.07
2019-01-29T08:59:12.447Z,12.93
2019-01-29T09:01:16.337Z,11.03
2019-01-29T09:03:20.244Z,13.33
2019-01-29T09:05:24.156Z,11.93
2019-01-29T09:07:28.018Z,7.83
2019-01-29T09:09:31.881Z,10.13
2019-01-29T09:11:35.766Z,9.90
2019-01-29T09:13:40.555Z,11.10
2019-01-29T09:15:44.582Z,9.50
2019-01-29T09:17:48.431Z,6.10
2019-01-29T09:19:52.340Z,13.27
2019-01-29T09:21:56.237Z,7.10
2019-01-29T09:24:00.149Z,10.07
2019-01-29T09:26:04.014Z,6.07
2019-01-29T09:28:07.902Z,8.87
2019-01-29T09:30:16.748Z,13.83
2019-01-29T09:32:20.621Z,9.00
2019-01-29T09:34:24.487Z,8.43
2019-01-29T09:36:28.379Z,14.90
2019-01-29T09:38:32.341Z,8.57
2019-01-29T09:40:36.231Z,11.33
2019-01-29T09:42:40.149Z,13.27
2019-01-29T09:44:44.070Z,9.87
2019-01-29T09:46:47.931Z,6.87
2019-01-29T09:48:51.841Z,6.63
2019-01-29T09:50:55.717Z,11.37
2019-01-29T09:52:59.593Z,5.13
2019-01-29T09:55:03.441Z,10.97
2019-01-29T09:57:07.310Z,8.53
2019-01-29T09:59:11.199Z,9.53
2019-01-29T10:01:15.105Z,9.50
2019-01-29T10:03:18.978Z,8.30
2019-01-29T10:05:22.982Z,6.30
2019-01-29T10:07:26.894Z,9.23
2019-01-29T10:09:30.776Z,6.20
2019-01-29T10:11:34.636Z,14.13
2019-01-29T10:13:38.579Z,6.07
2019-01-29T10:15:42.474Z,9.17
2019-01-29T10:17:46.433Z,7.47
2019-01-29T10:19:50.319Z,7.70
2019-01-29T10:21:54.274Z,18.30
2019-01-29T10:23:58.151Z,13.07
2019-01-29T10:26:02.042Z,10.73
2019-01-29T10:28:05.895Z,9.03
2019-01-29T10:30:13.232Z,11.03
2019-01-29T10:32:17.076Z,11.43
2019-01-29T10:34:21.004Z,9.90
2019-01-29T10:36:24.871Z,10.00
2019-01-29T10:38:28.738Z,11.07
2019-01-29T10:40:32.677Z,6.90
2019-01-29T10:42:36.542Z,6.90
2019-01-29T10:44:40.480Z,10.43
2019-01-29T10:46:44.376Z,7.17
2019-01-29T10:48:48.237Z,10.60
2019-01-29T10:50:52.102Z,7.63
2019-01-29T10:52:56.041Z,16.63
2019-01-29T10:54:59.881Z,11.33
2019-01-29T10:57:04.164Z,14.20
2019-01-29T10:59:08.009Z,13.50
2019-01-29T11:01:11.904Z,5.80
2019-01-29T11:03:15.828Z,12.03
2019-01-29T11:05:20.719Z,7.57
2019-01-29T11:07:24.594Z,8.77
2019-01-29T11:09:28.470Z,13.03
2019-01-29T11:11:32.346Z,8.73
2019-01-29T11:13:36.240Z,11.87
2019-01-29T11:15:41.608Z,8.57
2019-01-29T11:17:45.483Z,12.03
2019-01-29T11:19:49.370Z,7.87
2019-01-29T11:21:53.309Z,9.00
2019-01-29T11:23:57.166Z,9.40
2019-01-29T11:26:01.093Z,8.43
2019-01-29T11:28:05.337Z,9.37
2019-01-29T11:30:12.413Z,16.23
2019-01-29T11:32:16.286Z,9.13
2019-01-29T11:34:20.130Z,10.67
2019-01-29T11:36:24.028Z,12.13
2019-01-29T11:38:27.881Z,9.27
2019-01-29T11:40:33.726Z,9.47
2019-01-29T11:42:37.649Z,15.70
2019-01-29T11:44:41.527Z,14.67
2019-01-29T11:46:45.443Z,13.47
2019-01-29T11:48:49.334Z,17.40
2019-01-29T11:50:53.198Z,7.17
2019-01-29T11:52:57.089Z,7.23
2019-01-29T11:55:00.966Z,10.83
2019-01-29T11:57:04.917Z,9.87
2019-01-29T11:59:08.827Z,16.47
2019-01-29T12:01:12.752Z,13.73
2019-01-29T12:03:16.641Z,15.50
2019-01-29T12:05:20.603Z,12.77
2019-01-29T12:07:24.450Z,10.73
2019-01-29T12:09:28.351Z,10.10
2019-01-29T12:11:32.269Z,10.97
2019-01-29T12:13:36.157Z,16.43
2019-01-29T12:15:40.042Z,12.83
2019-01-29T12:17:43.933Z,12.83
2019-01-29T12:19:47.885Z,10.10
2019-01-29T12:21:51.767Z,11.40
2019-01-29T12:23:55.674Z,13.53
2019-01-29T12:25:59.562Z,7.13
2019-01-29T12:28:03.753Z,9.73
2019-01-29T12:30:30.576Z,16.43
2019-01-29T12:32:34.415Z,10.93
2019-01-29T12:34:38.285Z,12.67
2019-01-29T12:36:42.185Z,10.40
2019-01-29T12:38:46.039Z,11.17
2019-01-29T12:40:50.008Z,16.37
2019-01-29T12:42:53.872Z,11.07
2019-01-29T12:44:57.754Z,10.17
2019-01-29T12:47:01.652Z,12.43
2019-01-29T12:49:05.907Z,10.67
2019-01-29T12:51:11.417Z,9.23
2019-01-29T12:53:16.835Z,10.73
2019-01-29T12:55:20.694Z,12.23
2019-01-29T12:57:24.578Z,10.50
2019-01-29T12:59:28.471Z,9.43
2019-01-29T13:01:32.334Z,12.70
2019-01-29T13:03:36.229Z,10.83
2019-01-29T13:05:40.088Z,12.77
2019-01-29T13:07:44.569Z,12.17
2019-01-29T13:09:48.431Z,8.20
2019-01-29T13:11:52.413Z,9.63
2019-01-29T13:13:56.288Z,13.80
2019-01-29T13:16:00.142Z,13.00
2019-01-29T13:18:04.741Z,10.67
2019-01-29T13:20:11.286Z,8.47
2019-01-29T13:22:15.165Z,11.53
2019-01-29T13:24:19.029Z,11.33
2019-01-29T13:26:29.893Z,9.37
2019-01-29T13:28:28.420Z,6.10
2019-01-29T13:30:38.635Z,9.50
2019-01-29T13:32:42.537Z,8.00
2019-01-29T13:34:46.427Z,7.83
2019-01-29T13:36:50.292Z,8.83
2019-01-29T13:38:54.154Z,11.27
2019-01-29T13:40:58.282Z,9.40
2019-01-29T13:43:02.176Z,10.07
2019-01-29T13:45:09.421Z,12.25
2019-01-29T13:47:13.313Z,8.80
2019-01-29T13:49:17.165Z,7.13
2019-01-29T13:51:21.112Z,13.50
2019-01-29T13:53:24.956Z,10.87
2019-01-29T13:55:28.837Z,10.43
2019-01-29T13:57:32.797Z,5.30
2019-01-29T13:59:36.716Z,8.27
2019-01-29T14:01:40.607Z,9.07
2019-01-29T14:03:44.604Z,10.53
2019-01-29T14:05:48.543Z,10.57
2019-01-29T14:07:52.405Z,8.00
2019-01-29T14:09:56.310Z,8.30
2019-01-29T14:12:00.191Z,6.63
2019-01-29T14:14:04.276Z,9.37
2019-01-29T14:16:08.376Z,9.37
2019-01-29T14:18:12.414Z,10.83
2019-01-29T14:20:18.990Z,9.80
2019-01-29T14:22:22.873Z,9.30
2019-01-29T14:24:26.770Z,7.47
2019-01-29T14:26:30.641Z,9.97
2019-01-29T14:28:36.459Z,13.07
2019-01-29T14:30:40.025Z,8.67
2019-01-29T14:32:43.890Z,9.27
2019-01-29T14:34:47.733Z,9.63
2019-01-29T14:36:51.663Z,9.93
2019-01-29T14:39:13.502Z,8.40
2019-01-29T14:41:17.417Z,15.63
2019-01-29T14:43:27.266Z,11.63
2019-01-29T14:45:32.830Z,8.33
2019-01-29T14:47:36.783Z,13.70
2019-01-29T14:49:40.634Z,9.70
2019-01-29T14:51:44.541Z,11.43
2019-01-29T14:53:48.388Z,8.60
2019-01-29T14:55:52.254Z,10.90
2019-01-29T14:57:56.185Z,7.93
2019-01-29T15:00:00.248Z,10.13
2019-01-29T15:02:04.150Z,10.03
2019-01-29T15:04:08.032Z,8.83
2019-01-29T15:06:11.900Z,9.57
2019-01-29T15:08:15.769Z,13.80
2019-01-29T15:10:22.746Z,9.03
2019-01-29T15:12:26.623Z,9.37
2019-01-29T15:14:30.630Z,10.63
2019-01-29T15:16:36.033Z,9.53
2019-01-29T15:18:50.711Z,9.80
2019-01-29T15:20:54.610Z,11.87
2019-01-29T15:22:58.448Z,10.40
2019-01-29T15:25:02.343Z,12.07
2019-01-29T15:27:06.215Z,11.33
2019-01-29T15:29:10.114Z,13.07
2019-01-29T15:31:14.115Z,14.43
2019-01-29T15:33:17.960Z,9.70
2019-01-29T15:35:21.820Z,11.30
2019-01-29T15:37:25.740Z,10.53
2019-01-29T15:39:29.606Z,9.60
2019-01-29T15:41:33.520Z,11.90
2019-01-29T15:43:37.387Z,11.57
2019-01-29T15:45:41.251Z,12.97
2019-01-29T15:47:45.269Z,11.67
2019-01-29T15:49:49.173Z,11.07
2019-01-29T15:51:53.082Z,12.50
2019-01-29T15:53:56.926Z,14.43
2019-01-29T15:56:00.814Z,11.70
2019-01-29T15:58:06.036Z,15.70
2019-01-29T16:00:29.354Z,16.50
2019-01-29T16:02:33.270Z,12.10
2019-01-29T16:04:37.130Z,14.77
2019-01-29T16:06:41.016Z,11.77
2019-01-29T16:08:44.918Z,12.47
2019-01-29T16:10:48.807Z,10.67
2019-01-29T16:12:52.641Z,10.03
2019-01-29T16:14:56.517Z,12.57
2019-01-29T16:17:00.424Z,11.87
2019-01-29T16:19:04.382Z,13.17
2019-01-29T16:21:08.352Z,9.80
2019-01-29T16:23:12.382Z,10.40
2019-01-29T16:25:22.441Z,9.23
2019-01-29T16:27:26.338Z,10.43
2019-01-29T16:29:30.189Z,8.80
2019-01-29T16:31:34.123Z,10.90
2019-01-29T16:33:37.998Z,11.47
2019-01-29T16:35:43.411Z,10.33
2019-01-29T16:37:47.286Z,10.63
2019-01-29T16:39:51.146Z,9.10
2019-01-29T16:41:55.037Z,11.70
2019-01-29T16:43:58.923Z,11.77
2019-01-29T16:46:02.833Z,11.60
2019-01-29T16:48:08.720Z,12.47
2019-01-29T16:50:15.525Z,10.70
2019-01-29T16:52:19.450Z,13.23
2019-01-29T16:54:23.315Z,10.63
2019-01-29T16:56:27.199Z,14.40
2019-01-29T16:58:31.088Z,11.30
2019-01-29T17:00:40.203Z,13.03
2019-01-29T17:02:44.094Z,13.50
2019-01-29T17:04:48.012Z,13.37
2019-01-29T17:06:51.897Z,15.03
2019-01-29T17:08:55.818Z,15.13
2019-01-29T17:10:59.687Z,16.77
2019-01-29T17:13:03.988Z,10.53
2019-01-29T17:15:10.871Z,10.73
2019-01-29T17:17:14.761Z,9.67
2019-01-29T17:19:18.602Z,11.33
2019-01-29T17:21:22.494Z,9.63
2019-01-29T17:23:26.350Z,9.27
2019-01-29T17:25:30.366Z,10.97
2019-01-29T17:27:40.100Z,10.80
2019-01-29T17:29:39.791Z,11.00
2019-01-29T17:31:43.758Z,15.60
2019-01-29T17:33:47.625Z,12.50
2019-01-29T17:35:51.530Z,14.47
2019-01-29T17:37:55.632Z,9.37
2019-01-29T17:39:59.522Z,11.60
2019-01-29T17:42:03.446Z,13.73
2019-01-29T17:44:07.342Z,10.17
2019-01-29T17:46:11.201Z,8.83
2019-01-29T17:48:15.079Z,12.93
2019-01-29T17:50:22.351Z,10.90
2019-01-29T17:52:26.213Z,12.57
2019-01-29T17:54:30.125Z,9.20
2019-01-29T17:56:33.977Z,13.57
2019-01-29T17:58:37.829Z,11.17
2019-01-29T18:00:43.326Z,15.93
2019-01-29T18:02:47.172Z,12.77
2019-01-29T18:04:51.104Z,13.70
2019-01-29T18:06:54.996Z,14.30
2019-01-29T18:08:58.865Z,13.03
2019-01-29T18:11:02.799Z,12.57
2019-01-29T18:13:06.695Z,17.30
2019-01-29T18:15:16.314Z,17.67
2019-01-29T18:17:20.227Z,19.17
2019-01-29T18:19:24.089Z,14.53
2019-01-29T18:21:27.977Z,16.03
2019-01-29T18:23:31.862Z,16.03
2019-01-29T18:25:35.780Z,16.67
2019-01-29T18:27:39.701Z,15.53
2019-01-29T18:29:43.578Z,15.83
2019-01-29T18:31:47.489Z,16.23
2019-01-29T18:33:51.391Z,21.93
2019-01-29T18:35:55.262Z,16.67
2019-01-29T18:37:59.182Z,15.70
2019-01-29T18:40:03.173Z,20.77
2019-01-29T18:42:07.094Z,15.60
2019-01-29T18:44:11.028Z,22.33
2019-01-29T18:46:14.919Z,17.30
2019-01-29T18:48:18.770Z,15.90
2019-01-29T18:50:22.653Z,17.50
2019-01-29T18:52:26.607Z,15.27
2019-01-29T18:54:30.446Z,20.10
2019-01-29T18:56:34.380Z,15.07
2019-01-29T18:58:38.249Z,17.07
2019-01-29T19:00:42.189Z,15.07
2019-01-29T19:02:46.449Z,14.53
2019-01-29T19:04:50.311Z,15.30
2019-01-29T19:06:54.235Z,13.63
2019-01-29T19:08:58.083Z,17.73
2019-01-29T19:11:02.034Z,16.13
2019-01-29T19:13:06.129Z,14.07
2019-01-29T19:15:13.005Z,14.63
2019-01-29T19:17:17.255Z,21.27
2019-01-29T19:19:21.199Z,20.37
2019-01-29T19:21:25.181Z,22.10
2019-01-29T19:23:29.108Z,17.60
2019-01-29T19:25:32.981Z,19.37
2019-01-29T19:27:36.946Z,15.70
2019-01-29T19:29:41.249Z,16.27
2019-01-29T19:31:45.404Z,15.10
2019-01-29T19:33:49.403Z,18.20
2019-01-29T19:35:53.461Z,15.07
2019-01-29T19:37:57.518Z,15.20
2019-01-29T19:40:01.768Z,20.93
2019-01-29T19:42:05.992Z,25.70
2019-01-29T19:44:10.213Z,20.03
2019-01-29T19:46:14.505Z,17.87
2019-01-29T19:48:19.119Z,24.23
2019-01-29T19:50:25.407Z,18.40
2019-01-29T19:52:29.574Z,20.37
2019-01-29T19:54:33.595Z,20.53
2019-01-29T19:56:37.728Z,18.90
2019-01-29T19:58:41.856Z,20.67
2019-01-29T20:00:45.989Z,22.30
2019-01-29T20:02:50.721Z,24.17
2019-01-29T20:04:54.784Z,15.53
2019-01-29T20:06:58.925Z,18.80
2019-01-29T20:09:04.616Z,24.83
2019-01-29T20:11:08.779Z,24.37
2019-01-29T20:13:12.855Z,22.20
2019-01-29T20:15:21.821Z,22.50
2019-01-29T20:17:25.920Z,23.93
2019-01-29T20:19:30.030Z,33.03
2019-01-29T20:21:34.144Z,24.10
2019-01-29T20:23:38.286Z,24.67
2019-01-29T20:25:42.433Z,22.50
2019-01-29T20:27:46.531Z,24.20
2019-01-29T20:29:50.616Z,26.73
2019-01-29T20:31:54.742Z,21.90
2019-01-29T20:33:58.726Z,24.23
2019-01-29T20:36:02.682Z,21.83
2019-01-29T20:38:06.730Z,19.47
2019-01-29T20:40:13.973Z,17.53
2019-01-29T20:42:17.811Z,23.60
2019-01-29T20:44:21.695Z,20.47
2019-01-29T20:46:25.733Z,24.17
2019-01-29T20:48:29.601Z,26.33
2019-01-29T20:50:37.498Z,22.47
2019-01-29T20:52:41.402Z,20.50
2019-01-29T20:54:45.295Z,22.17
2019-01-29T20:56:49.151Z,26.27
2019-01-29T20:58:53.141Z,20.63
2019-01-29T21:00:57.104Z,18.23
2019-01-29T21:03:01.539Z,23.33
2019-01-29T21:05:08.355Z,19.20
2019-01-29T21:07:12.210Z,17.77
2019-01-29T21:09:16.121Z,23.03
2019-01-29T21:11:19.980Z,16.67
2019-01-29T21:13:23.973Z,20.37
2019-01-29T21:15:38.170Z,22.20
2019-01-29T21:17:34.572Z,22.93
2019-01-29T21:19:38.510Z,21.63
2019-01-29T21:21:42.408Z,21.43
2019-01-29T21:23:46.274Z,21.93
2019-01-29T21:25:50.173Z,20.43
2019-01-29T21:27:54.031Z,19.60
2019-01-29T21:29:57.913Z,17.80
2019-01-29T21:32:02.849Z,19.50
2019-01-29T21:34:06.767Z,20.50
2019-01-29T21:36:10.634Z,21.37
2019-01-29T21:38:18.086Z,21.80
2019-01-29T21:40:23.875Z,24.57
2019-01-29T21:42:28.731Z,24.83
2019-01-29T21:44:32.578Z,26.50
2019-01-29T21:46:36.789Z,22.80
2019-01-29T21:48:40.692Z,26.87
2019-01-29T21:50:44.574Z,28.27
2019-01-29T21:52:49.410Z,26.37
2019-01-29T21:54:53.314Z,20.83
2019-01-29T21:56:57.434Z,19.73
2019-01-29T21:59:01.605Z,23.13
2019-01-29T22:01:07.195Z,17.87
2019-01-29T22:03:11.175Z,21.53
2019-01-29T22:05:15.125Z,22.90
2019-01-29T22:07:20.306Z,22.40
2019-01-29T22:09:24.209Z,23.67
2019-01-29T22:11:28.053Z,22.80
2019-01-29T22:13:31.977Z,21.30
2019-01-29T22:15:35.835Z,22.27
2019-01-29T22:17:39.748Z,23.03
2019-01-29T22:19:43.609Z,21.60
2019-01-29T22:21:48.613Z,20.30
2019-01-29T22:23:52.481Z,15.77
2019-01-29T22:25:56.343Z,20.40
2019-01-29T22:28:00.232Z,19.43
2019-01-29T22:30:07.749Z,16.47
2019-01-29T22:32:13.970Z,20.73
2019-01-29T22:34:19.752Z,18.50
2019-01-29T22:36:23.620Z,19.27
2019-01-29T22:38:27.639Z,21.63
2019-01-29T22:40:32.499Z,22.63
2019-01-29T22:42:36.546Z,19.90
2019-01-29T22:44:41.310Z,18.00
2019-01-29T22:46:45.172Z,19.60
2019-01-29T22:48:49.066Z,16.07
2019-01-29T22:50:52.930Z,14.20
2019-01-29T22:52:56.825Z,14.63
2019-01-29T22:55:00.730Z,15.20
2019-01-29T22:57:04.705Z,14.93
2019-01-29T22:59:08.884Z,13.30
2019-01-29T23:01:15.774Z,19.63
2019-01-29T23:03:21.974Z,15.40
2019-01-29T23:05:25.873Z,19.87
2019-01-29T23:07:30.854Z,16.53
2019-01-29T23:09:34.743Z,14.00
2019-01-29T23:11:39.141Z,15.60
2019-01-29T23:13:42.998Z,14.87
2019-01-29T23:15:47.478Z,13.97
2019-01-29T23:17:53.253Z,15.67
2019-01-29T23:19:57.318Z,15.93
2019-01-29T23:22:01.179Z,16.33
2019-01-29T23:24:05.297Z,13.20
2019-01-29T23:26:10.855Z,23.70
2019-01-29T23:28:14.717Z,14.37
2019-01-29T23:30:21.770Z,14.10
2019-01-29T23:32:25.698Z,18.20
2019-01-29T23:34:29.568Z,19.20
2019-01-29T23:36:33.453Z,16.63
2019-01-29T23:38:37.370Z,15.50
2019-01-29T23:40:41.267Z,25.00
2019-01-29T23:42:45.150Z,15.20
2019-01-29T23:44:49.031Z,18.07
2019-01-29T23:46:56.076Z,16.23
2019-01-29T23:48:59.961Z,14.03
2019-01-29T23:51:03.843Z,13.83
2019-01-29T23:53:08.682Z,15.73
2019-01-29T23:55:12.826Z,13.60
2019-01-29T23:57:17.569Z,16.37
2019-01-29T23:59:23.524Z,12.47
